createdAt,value
2019-04-10T00:00:41.260Z,7.40
2019-04-10T00:03:44.425Z,6.80
2019-04-10T00:06:47.959Z,6.07
2019-04-10T00:09:51.660Z,6.53
2019-04-10T00:12:56.146Z,6.70
2019-04-10T00:15:59.241Z,6.70
2019-04-10T00:19:02.791Z,6.43
2019-04-10T00:22:06.318Z,6.30
2019-04-10T00:25:10.580Z,6.30
2019-04-10T00:28:14.991Z,5.40
2019-04-10T00:31:18.152Z,6.00
2019-04-10T00:34:21.269Z,5.80
2019-04-10T00:37:28.699Z,5.43
2019-04-10T00:40:29.543Z,6.03
2019-04-10T00:43:32.917Z,6.17
2019-04-10T00:46:36.052Z,6.33
2019-04-10T00:49:39.951Z,6.57
2019-04-10T00:52:44.088Z,5.67
2019-04-10T00:55:48.171Z,5.70
2019-04-10T00:58:51.536Z,6.23
2019-04-10T01:01:54.487Z,6.40
2019-04-10T01:04:58.445Z,7.03
2019-04-10T01:08:02.366Z,6.30
2019-04-10T01:11:06.511Z,5.50
2019-04-10T01:14:09.702Z,5.77
2019-04-10T01:17:13.695Z,5.57
2019-04-10T01:20:17.619Z,4.90
2019-04-10T01:23:21.323Z,5.50
2019-04-10T01:26:25.053Z,4.53
2019-04-10T01:29:29.233Z,5.77
2019-04-10T01:32:32.836Z,5.47
2019-04-10T01:35:35.903Z,6.07
2019-04-10T01:38:39.781Z,5.43
2019-04-10T01:41:43.868Z,4.83
2019-04-10T01:44:47.123Z,5.40
2019-04-10T01:47:51.209Z,6.10
2019-04-10T01:50:54.875Z,5.73
2019-04-10T01:53:58.523Z,5.80
2019-04-10T01:57:02.057Z,5.57
2019-04-10T02:00:08.261Z,6.50
2019-04-10T02:03:11.942Z,5.07
2019-04-10T02:06:14.912Z,5.30
2019-04-10T02:09:19.192Z,4.57
2019-04-10T02:12:23.290Z,4.73
2019-04-10T02:15:28.105Z,4.37
2019-04-10T02:18:31.374Z,4.60
2019-04-10T02:21:35.981Z,5.60
2019-04-10T02:24:39.496Z,5.30
2019-04-10T02:27:43.119Z,4.60
2019-04-10T02:30:46.228Z,4.80
2019-04-10T02:33:49.704Z,6.07
2019-04-10T02:36:53.115Z,4.83
2019-04-10T02:40:02.193Z,5.47
2019-04-10T02:43:03.252Z,5.30
2019-04-10T02:46:06.908Z,4.97
2019-04-10T02:49:14.423Z,4.13
2019-04-10T02:52:18.322Z,4.33
2019-04-10T02:55:23.205Z,4.70
2019-04-10T02:58:26.905Z,5.37
2019-04-10T03:01:31.189Z,5.40
2019-04-10T03:04:35.175Z,5.20
2019-04-10T03:07:42.283Z,5.10
2019-04-10T03:10:50.584Z,5.30
2019-04-10T03:13:51.426Z,6.23
2019-04-10T03:16:55.500Z,4.97
2019-04-10T03:19:58.899Z,5.10
2019-04-10T03:23:02.048Z,4.40
2019-04-10T03:26:05.608Z,5.00
2019-04-10T03:29:08.782Z,4.87
2019-04-10T03:32:50.261Z,5.67
2019-04-10T03:35:51.435Z,6.00
2019-04-10T03:39:00.071Z,5.33
2019-04-10T03:41:59.688Z,5.57
2019-04-10T03:45:03.402Z,5.23
2019-04-10T03:48:06.734Z,4.70
2019-04-10T03:51:10.305Z,5.57
2019-04-10T03:54:13.634Z,5.30
2019-04-10T03:57:16.688Z,5.90
2019-04-10T04:00:20.981Z,5.00
2019-04-10T04:03:24.654Z,6.03
2019-04-10T04:06:28.076Z,5.80
2019-04-10T04:09:31.676Z,6.13
2019-04-10T04:12:35.215Z,5.70
2019-04-10T04:15:38.603Z,6.03
2019-04-10T04:18:41.952Z,6.20
2019-04-10T04:21:44.918Z,5.80
2019-04-10T04:24:48.643Z,6.20
2019-04-10T04:27:51.877Z,6.30
2019-04-10T04:30:54.823Z,5.37
2019-04-10T04:33:57.775Z,6.00
2019-04-10T04:37:00.692Z,4.73
2019-04-10T04:40:05.469Z,5.77
2019-04-10T04:43:08.562Z,5.80
2019-04-10T04:46:12.471Z,4.77
2019-04-10T04:49:15.779Z,5.47
2019-04-10T04:52:20.327Z,5.50
2019-04-10T04:55:23.448Z,5.20
2019-04-10T04:58:26.690Z,6.00
2019-04-10T05:01:29.720Z,5.90
2019-04-10T05:04:33.756Z,6.60
2019-04-10T05:07:37.620Z,6.80
2019-04-10T05:10:41.882Z,5.60
2019-04-10T05:13:45.585Z,5.97
2019-04-10T05:16:49.988Z,6.17
2019-04-10T05:19:54.494Z,5.87
2019-04-10T05:22:58.550Z,6.57
2019-04-10T05:26:03.809Z,6.83
2019-04-10T05:29:07.181Z,5.40
2019-04-10T05:32:11.410Z,5.20
2019-04-10T05:35:15.251Z,6.83
2019-04-10T05:38:18.762Z,5.67
2019-04-10T05:41:23.256Z,5.73
2019-04-10T05:44:27.768Z,7.30
2019-04-10T05:47:30.732Z,5.80
2019-04-10T05:50:33.669Z,4.80
2019-04-10T05:53:36.856Z,5.20
2019-04-10T05:56:40.596Z,5.73
2019-04-10T05:59:43.958Z,5.07
2019-04-10T06:02:48.070Z,5.97
2019-04-10T06:05:51.542Z,5.70
2019-04-10T06:08:54.473Z,5.80
2019-04-10T06:12:00.083Z,5.90
2019-04-10T06:15:04.430Z,5.57
2019-04-10T06:18:09.189Z,4.40
2019-04-10T06:21:12.557Z,5.23
2019-04-10T06:24:16.304Z,5.70
2019-04-10T06:27:20.468Z,6.50
2019-04-10T06:30:24.249Z,5.70
2019-04-10T06:33:28.440Z,5.20
2019-04-10T06:36:31.499Z,5.70
2019-04-10T06:39:35.233Z,5.37
2019-04-10T06:42:46.159Z,4.80
2019-04-10T06:45:44.021Z,5.33
2019-04-10T06:48:48.114Z,5.70
2019-04-10T06:51:52.284Z,5.77
2019-04-10T06:54:55.430Z,5.53
2019-04-10T06:57:59.344Z,4.60
2019-04-10T07:01:04.160Z,5.63
2019-04-10T07:04:08.140Z,5.40
2019-04-10T07:07:15.170Z,4.97
2019-04-10T07:10:26.102Z,5.77
2019-04-10T07:13:21.986Z,5.17
2019-04-10T07:16:28.907Z,5.07
2019-04-10T07:19:30.658Z,4.30
2019-04-10T07:22:34.030Z,4.57
2019-04-10T07:25:37.652Z,5.50
2019-04-10T07:28:45.652Z,4.93
2019-04-10T07:31:48.766Z,4.77
2019-04-10T07:34:57.426Z,5.93
2019-04-10T07:37:58.069Z,5.30
2019-04-10T07:41:01.529Z,4.93
2019-04-10T07:44:05.892Z,5.03
2019-04-10T07:47:11.107Z,4.67
2019-04-10T07:50:14.701Z,4.27
2019-04-10T07:53:17.648Z,4.70
2019-04-10T07:56:20.980Z,5.70
2019-04-10T07:59:25.568Z,4.77
2019-04-10T08:03:14.640Z,4.87
2019-04-10T08:06:17.953Z,5.50
2019-04-10T08:09:21.238Z,7.03
2019-04-10T08:12:37.620Z,11.63
2019-04-10T08:15:33.564Z,5.97
2019-04-10T08:18:37.240Z,4.20
2019-04-10T08:21:40.396Z,3.43
2019-04-10T08:24:49.106Z,3.73
2019-04-10T08:27:52.305Z,3.80
2019-04-10T08:30:57.445Z,4.87
2019-04-10T08:34:01.089Z,4.00
2019-04-10T08:37:04.613Z,3.50
2019-04-10T08:40:09.626Z,3.93
2019-04-10T08:43:13.778Z,5.33
2019-04-10T08:46:17.698Z,6.60
2019-04-10T08:49:21.424Z,4.07
2019-04-10T08:52:24.757Z,4.87
2019-04-10T08:55:28.280Z,4.73
2019-04-10T08:58:32.755Z,4.47
2019-04-10T09:01:36.316Z,4.43
2019-04-10T09:04:39.295Z,4.13
2019-04-10T09:07:42.291Z,3.70
2019-04-10T09:10:47.408Z,4.33
2019-04-10T09:13:50.763Z,4.30
2019-04-10T09:16:55.258Z,4.50
2019-04-10T09:19:58.400Z,3.90
2019-04-10T09:23:33.031Z,5.43
2019-04-10T09:26:06.576Z,6.23
2019-04-10T09:29:09.802Z,4.77
2019-04-10T09:32:12.799Z,4.50
2019-04-10T09:35:16.368Z,6.40
2019-04-10T09:38:20.972Z,4.67
2019-04-10T09:41:23.988Z,6.33
2019-04-10T09:44:27.831Z,7.53
2019-04-10T09:47:31.011Z,5.27
2019-04-10T09:50:33.947Z,5.37
2019-04-10T09:53:38.987Z,4.40
2019-04-10T09:56:42.405Z,5.00
2019-04-10T09:59:46.987Z,6.10
2019-04-10T10:02:50.738Z,4.83
2019-04-10T10:05:55.023Z,8.17
2019-04-10T10:08:58.468Z,9.80
2019-04-10T10:12:01.511Z,9.70
2019-04-10T10:15:07.235Z,8.00
2019-04-10T10:18:10.937Z,6.20
2019-04-10T10:21:14.615Z,7.20
2019-04-10T10:24:18.320Z,8.30
2019-04-10T10:27:22.152Z,7.80
2019-04-10T10:30:27.273Z,7.97
2019-04-10T10:33:31.989Z,7.57
2019-04-10T10:36:41.133Z,6.83
2019-04-10T10:39:41.145Z,6.50
2019-04-10T10:42:45.552Z,7.87
2019-04-10T10:45:49.207Z,7.37
2019-04-10T10:48:52.232Z,7.03
2019-04-10T10:51:57.210Z,6.83
2019-04-10T10:55:01.058Z,7.70
2019-04-10T10:58:05.798Z,7.23
2019-04-10T11:01:08.968Z,6.70
2019-04-10T11:04:12.953Z,6.93
2019-04-10T11:07:16.217Z,5.90
2019-04-10T11:10:22.709Z,7.10
2019-04-10T11:13:24.293Z,9.03
2019-04-10T11:16:27.673Z,7.70
2019-04-10T11:19:31.232Z,6.47
2019-04-10T11:22:35.521Z,7.73
2019-04-10T11:25:40.394Z,7.10
2019-04-10T11:28:45.618Z,6.77
2019-04-10T11:31:49.227Z,7.17
2019-04-10T11:34:52.971Z,7.37
2019-04-10T11:37:59.247Z,6.13
2019-04-10T11:41:03.016Z,4.90
2019-04-10T11:44:08.147Z,6.67
2019-04-10T11:47:12.762Z,7.80
2019-04-10T11:50:18.377Z,6.00
2019-04-10T11:53:24.013Z,8.07
2019-04-10T11:56:30.063Z,6.00
2019-04-10T11:59:34.583Z,6.70
2019-04-10T12:02:39.425Z,6.40
2019-04-10T12:05:42.659Z,7.53
2019-04-10T12:09:08.310Z,9.30
2019-04-10T12:11:51.489Z,6.93
2019-04-10T12:14:54.454Z,8.27
2019-04-10T12:17:58.237Z,7.03
2019-04-10T12:21:01.924Z,8.07
2019-04-10T12:24:05.420Z,7.53
2019-04-10T12:27:09.161Z,7.67
2019-04-10T12:30:13.325Z,8.60
2019-04-10T12:33:17.173Z,7.43
2019-04-10T12:36:20.536Z,8.20
2019-04-10T12:39:24.538Z,7.53
2019-04-10T12:42:28.146Z,7.93
2019-04-10T12:45:32.635Z,7.10
2019-04-10T12:48:36.901Z,7.80
2019-04-10T12:51:40.271Z,8.00
2019-04-10T12:54:44.973Z,7.90
2019-04-10T12:57:48.664Z,8.13
2019-04-10T13:00:52.207Z,7.33
2019-04-10T13:03:55.774Z,8.90
2019-04-10T13:06:59.069Z,8.80
2019-04-10T13:10:02.544Z,7.80
2019-04-10T13:13:06.148Z,7.90
2019-04-10T13:16:09.918Z,8.50
2019-04-10T13:19:13.190Z,8.20
2019-04-10T13:22:16.645Z,7.23
2019-04-10T13:25:19.613Z,7.10
2019-04-10T13:28:23.743Z,8.70
2019-04-10T13:31:27.652Z,6.43
2019-04-10T13:34:31.269Z,7.33
2019-04-10T13:37:35.610Z,7.87
2019-04-10T13:40:39.578Z,7.43
2019-04-10T13:43:42.600Z,8.00
2019-04-10T13:46:46.424Z,9.00
2019-04-10T13:49:51.115Z,7.57
2019-04-10T13:52:54.891Z,7.77
2019-04-10T13:55:58.999Z,8.33
2019-04-10T13:59:02.141Z,5.17
2019-04-10T14:02:06.964Z,5.17
2019-04-10T14:05:13.690Z,4.63
2019-04-10T14:08:17.264Z,5.97
2019-04-10T14:11:21.470Z,4.97
2019-04-10T14:14:24.595Z,5.40
2019-04-10T14:17:28.407Z,5.63
2019-04-10T14:20:31.685Z,5.33
2019-04-10T14:23:35.331Z,5.20
2019-04-10T14:26:55.651Z,5.40
2019-04-10T14:29:59.695Z,6.40
2019-04-10T14:33:05.066Z,9.07
2019-04-10T14:36:08.250Z,5.47
2019-04-10T14:39:18.406Z,5.57
2019-04-10T14:42:20.327Z,5.50
2019-04-10T14:45:23.619Z,4.90
2019-04-10T14:48:27.884Z,6.13
2019-04-10T14:51:32.481Z,6.90
2019-04-10T14:54:35.823Z,6.43
2019-04-10T14:57:39.174Z,6.60
2019-04-10T15:00:49.520Z,8.27
2019-04-10T15:03:53.001Z,8.00
2019-04-10T15:06:56.302Z,7.60
2019-04-10T15:10:00.909Z,7.70
2019-04-10T15:13:10.255Z,7.77
2019-04-10T15:16:09.496Z,7.50
2019-04-10T15:19:12.900Z,7.97
2019-04-10T15:22:15.968Z,8.30
2019-04-10T15:25:19.489Z,6.83
2019-04-10T15:28:23.236Z,5.83
2019-04-10T15:31:27.560Z,5.97
2019-04-10T15:34:31.389Z,5.53
2019-04-10T15:37:35.192Z,6.10
2019-04-10T15:40:38.614Z,6.30
2019-04-10T15:43:42.016Z,6.20
2019-04-10T15:46:45.647Z,5.37
2019-04-10T15:49:49.392Z,7.23
2019-04-10T15:52:53.593Z,6.30
2019-04-10T15:55:57.783Z,6.57
2019-04-10T15:59:01.192Z,5.57
2019-04-10T16:02:05.721Z,5.77
2019-04-10T16:05:10.081Z,5.90
2019-04-10T16:08:14.258Z,5.80
2019-04-10T16:11:29.942Z,5.77
2019-04-10T16:14:33.407Z,6.33
2019-04-10T16:17:52.587Z,6.37
2019-04-10T16:20:56.182Z,5.00
2019-04-10T16:24:04.605Z,5.40
2019-04-10T16:27:07.669Z,5.03
2019-04-10T16:30:15.494Z,5.63
2019-04-10T16:33:18.874Z,4.60
2019-04-10T16:36:23.404Z,4.67
2019-04-10T16:39:27.834Z,4.43
2019-04-10T16:42:31.042Z,5.67
2019-04-10T16:45:34.892Z,5.40
2019-04-10T16:48:38.035Z,5.00
2019-04-10T16:51:41.009Z,4.97
2019-04-10T16:54:45.158Z,5.07
2019-04-10T16:57:49.151Z,6.77
2019-04-10T17:00:53.780Z,4.80
2019-04-10T17:03:57.256Z,5.80
2019-04-10T17:07:00.848Z,5.50
2019-04-10T17:10:14.065Z,4.93
2019-04-10T17:13:12.109Z,6.13
2019-04-10T17:16:15.641Z,5.50
2019-04-10T17:19:19.431Z,5.43
2019-04-10T17:22:30.881Z,4.97
2019-04-10T17:25:28.488Z,6.20
2019-04-10T17:28:32.311Z,4.83
2019-04-10T17:31:35.477Z,5.10
2019-04-10T17:34:38.944Z,4.93
2019-04-10T17:37:42.275Z,4.33
2019-04-10T17:40:50.929Z,4.43
2019-04-10T17:43:51.554Z,4.70
2019-04-10T17:46:55.761Z,4.23
2019-04-10T17:50:00.168Z,4.33
2019-04-10T17:53:05.101Z,4.50
2019-04-10T17:56:08.665Z,4.40
2019-04-10T17:59:11.605Z,4.33
2019-04-10T18:02:15.719Z,4.70
2019-04-10T18:05:20.116Z,5.00
2019-04-10T18:08:26.424Z,4.53
2019-04-10T18:11:29.798Z,5.50
2019-04-10T18:14:36.148Z,3.63
2019-04-10T18:17:38.735Z,3.93
2019-04-10T18:20:42.239Z,4.77
2019-04-10T18:23:45.445Z,4.40
2019-04-10T18:26:51.917Z,4.53
2019-04-10T18:29:53.584Z,4.13
2019-04-10T18:32:58.084Z,5.53
2019-04-10T18:36:01.528Z,4.33
2019-04-10T18:39:11.374Z,4.50
2019-04-10T18:42:13.890Z,5.67
2019-04-10T18:45:17.585Z,4.70
2019-04-10T18:48:21.383Z,5.40
2019-04-10T18:51:25.690Z,4.90
2019-04-10T18:54:29.790Z,4.90
2019-04-10T18:57:35.009Z,4.00
2019-04-10T19:00:56.850Z,4.80
2019-04-10T19:04:18.279Z,3.77
2019-04-10T19:07:22.894Z,4.13
2019-04-10T19:10:26.435Z,4.17
2019-04-10T19:13:29.408Z,4.60
2019-04-10T19:16:33.831Z,4.00
2019-04-10T19:19:40.095Z,4.97
2019-04-10T19:22:42.451Z,3.07
2019-04-10T19:25:47.079Z,5.27
2019-04-10T19:28:50.722Z,4.33
2019-04-10T19:31:56.447Z,4.53
2019-04-10T19:34:59.385Z,3.73
2019-04-10T19:38:03.164Z,4.00
2019-04-10T19:41:06.283Z,3.30
2019-04-10T19:44:10.737Z,3.90
2019-04-10T19:47:14.580Z,3.77
2019-04-10T19:50:19.402Z,3.83
2019-04-10T19:53:22.516Z,4.07
2019-04-10T19:56:26.653Z,4.10
2019-04-10T19:59:31.623Z,4.27
2019-04-10T20:02:35.166Z,4.37
2019-04-10T20:05:39.337Z,3.90
2019-04-10T20:08:42.587Z,4.63
2019-04-10T20:11:52.261Z,4.00
2019-04-10T20:14:50.725Z,5.00
2019-04-10T20:17:54.636Z,4.43
2019-04-10T20:20:58.086Z,3.97
2019-04-10T20:24:01.133Z,3.70
2019-04-10T20:27:04.495Z,3.80
2019-04-10T20:30:09.942Z,4.20
2019-04-10T20:33:14.488Z,3.90
2019-04-10T20:36:17.514Z,4.20
2019-04-10T20:39:21.101Z,4.40
2019-04-10T20:42:25.292Z,4.53
2019-04-10T20:45:29.489Z,4.40
2019-04-10T20:48:32.822Z,4.63
2019-04-10T20:51:35.969Z,4.30
2019-04-10T20:54:39.527Z,4.80
2019-04-10T20:57:46.413Z,4.57
2019-04-10T21:00:51.435Z,4.57
2019-04-10T21:03:57.105Z,4.00
2019-04-10T21:07:00.729Z,3.90
2019-04-10T21:10:04.290Z,3.27
2019-04-10T21:13:21.936Z,3.67
2019-04-10T21:16:27.349Z,4.73
2019-04-10T21:19:31.279Z,4.20
2019-04-10T21:22:34.331Z,3.43
2019-04-10T21:25:37.964Z,3.87
2019-04-10T21:28:41.580Z,3.93
2019-04-10T21:31:54.935Z,4.03
2019-04-10T21:34:59.689Z,4.60
2019-04-10T21:38:02.778Z,3.60
2019-04-10T21:41:08.093Z,3.30
2019-04-10T21:44:12.954Z,3.13
2019-04-10T21:47:16.037Z,3.97
2019-04-10T21:50:20.024Z,3.87
2019-04-10T21:53:24.086Z,4.00
2019-04-10T21:56:28.763Z,4.33
2019-04-10T21:59:32.149Z,4.60
2019-04-10T22:02:35.904Z,3.00
2019-04-10T22:05:41.012Z,2.77
2019-04-10T22:08:50.373Z,2.97
2019-04-10T22:11:55.314Z,3.20
2019-04-10T22:14:58.385Z,4.00
2019-04-10T22:18:02.982Z,3.67
2019-04-10T22:21:08.226Z,3.20
2019-04-10T22:24:11.609Z,3.10
2019-04-10T22:27:14.842Z,3.30
2019-04-10T22:30:18.969Z,3.40
2019-04-10T22:33:22.295Z,3.83
2019-04-10T22:36:26.013Z,3.43
2019-04-10T22:39:29.974Z,3.30
2019-04-10T22:42:40.115Z,3.60
2019-04-10T22:45:40.162Z,3.70
2019-04-10T22:48:43.669Z,3.60
2019-04-10T22:51:46.666Z,3.43
2019-04-10T22:54:50.898Z,3.50
2019-04-10T22:57:54.763Z,3.40
2019-04-10T23:00:58.031Z,3.53
2019-04-10T23:04:01.779Z,3.20
2019-04-10T23:07:06.027Z,4.00
2019-04-10T23:10:13.219Z,3.00
2019-04-10T23:13:18.635Z,3.43
2019-04-10T23:16:22.266Z,3.43
2019-04-10T23:19:25.834Z,3.90
2019-04-10T23:22:29.389Z,3.77
2019-04-10T23:25:32.864Z,3.60
2019-04-10T23:28:36.386Z,3.50
2019-04-10T23:31:41.618Z,3.40
2019-04-10T23:34:45.339Z,3.60
2019-04-10T23:37:48.615Z,4.40
2019-04-10T23:40:51.627Z,3.03
2019-04-10T23:43:55.705Z,3.50
2019-04-10T23:46:59.937Z,3.80
2019-04-10T23:50:06.263Z,3.30
2019-04-10T23:53:09.994Z,3.10
2019-04-10T23:56:13.624Z,2.67
2019-04-10T23:59:19.086Z,3.00
